Time;durP1;ratioP1;P1;durP2;ratioP2;P2;SDS_P1;SDS_P2;PMS_P1;PMS_P2;Temp;Humidity;BMP_temperature;BMP_pressure;BME280_temperature;BME280_humidity;BME280_pressure;Samples;Min_cycle;Max_cycle;Signal;HPM_P1;HPM_P2
2022/04/27 00:01:48;;;;;;;;;;;9.20;99.90;;;;;;5077489;28;19942;-72
2022/04/27 00:04:16;;;;;;;;;;;9.20;99.90;;;;;;5094431;28;19933;-71
2022/04/27 00:06:42;;;;;;;;;;;9.10;99.90;;;;;;5094558;28;19924;-71
2022/04/27 00:09:07;;;;;;;;;;;9.10;99.90;;;;;;5092687;28;19944;-72
2022/04/27 00:11:33;;;;;;;;;;;9.10;99.90;;;;;;5094781;28;19927;-72
2022/04/27 00:14:03;;;;;;;;;;;9.20;99.90;;;;;;5092423;28;19916;-72
2022/04/27 00:16:29;;;;;;;;;;;9.20;99.90;;;;;;5094672;28;19924;-72
2022/04/27 00:18:55;;;;;;;;;;;9.20;99.90;;;;;;5109069;28;19920;-72
2022/04/27 00:21:20;;;;;;;;;;;9.20;99.90;;;;;;5093712;28;20011;-72
2022/04/27 00:23:46;;;;;;;;;;;9.20;99.90;;;;;;5110208;28;19931;-72
2022/04/27 00:26:11;;;;;;;;;;;9.20;99.90;;;;;;5109613;28;20283;-72
2022/04/27 00:28:37;;;;;;;;;;;9.20;99.90;;;;;;5093377;28;19920;-72
2022/04/27 00:31:02;;;;;;;;;;;9.20;99.90;;;;;;5093059;28;19973;-72
2022/04/27 00:33:27;;;;;;;;;;;9.20;99.90;;;;;;5094171;28;20398;-72
2022/04/27 00:35:53;;;;;;;;;;;9.20;99.90;;;;;;5092043;28;20007;-72
2022/04/27 00:38:18;;;;;;;;;;;9.20;99.90;;;;;;5092657;28;19973;-72
2022/04/27 00:40:44;;;;;;;;;;;9.20;99.90;;;;;;5092636;28;19927;-72
2022/04/27 00:43:12;;;;;;;;;;;9.20;99.90;;;;;;5091989;28;20287;-72
2022/04/27 00:45:41;;;;;;;;;;;9.10;99.90;;;;;;5094214;28;20014;-72
2022/04/27 00:48:07;;;;;;;;;;;9.10;99.90;;;;;;5093499;28;19931;-72
2022/04/27 00:50:32;;;;;;;;;;;9.10;99.90;;;;;;5092267;28;19920;-72
2022/04/27 00:52:59;;;;;;;;;;;9.10;99.90;;;;;;5093451;28;20279;-72
2022/04/27 00:55:24;;;;;;;;;;;9.20;99.90;;;;;;5094213;28;19920;-72
2022/04/27 00:57:50;;;;;;;;;;;9.10;99.90;;;;;;5093328;28;19930;-72
2022/04/27 01:00:16;;;;;;;;;;;9.10;99.90;;;;;;5093810;28;19930;-72
2022/04/27 01:02:44;;;;;;;;;;;9.10;99.90;;;;;;5092656;28;20010;-72
2022/04/27 01:05:11;;;;;;;;;;;9.10;99.90;;;;;;5093276;28;19920;-72
2022/04/27 01:07:40;;;;;;;;;;;9.10;99.90;;;;;;5092066;28;20410;-71
2022/04/27 01:10:10;;;;;;;;;;;9.20;99.90;;;;;;5090645;28;19942;-72
2022/04/27 01:12:38;;;;;;;;;;;9.20;99.90;;;;;;5093821;28;20002;-72
2022/04/27 01:15:04;;;;;;;;;;;9.10;99.90;;;;;;5092378;28;19920;-72
2022/04/27 01:17:29;;;;;;;;;;;9.10;99.90;;;;;;5093094;28;20253;-72
2022/04/27 01:19:56;;;;;;;;;;;9.10;99.90;;;;;;5092579;28;19926;-72
2022/04/27 01:22:22;;;;;;;;;;;9.10;99.90;;;;;;5093425;28;20003;-72
2022/04/27 01:24:49;;;;;;;;;;;9.10;99.90;;;;;;5092575;28;19995;-72
2022/04/27 01:27:14;;;;;;;;;;;9.10;99.90;;;;;;5091739;28;19920;-72
2022/04/27 01:29:40;;;;;;;;;;;9.10;99.90;;;;;;5093100;28;19973;-72
2022/04/27 01:32:05;;;;;;;;;;;9.10;99.90;;;;;;5092773;28;19920;-72
2022/04/27 01:34:31;;;;;;;;;;;9.20;99.90;;;;;;5091891;28;20010;-72
2022/04/27 01:37:59;;;;;;;;;;;9.20;99.90;;;;;;5092842;28;20363;-72
2022/04/27 01:39:44;;;;;;;;;;;9.20;99.90;;;;;;5107342;28;19920;-72
2022/04/27 01:42:10;;;;;;;;;;;9.10;99.90;;;;;;5108813;28;19920;-72
2022/04/27 01:44:35;;;;;;;;;;;9.10;99.90;;;;;;5093286;28;19946;-71
2022/04/27 01:47:01;;;;;;;;;;;9.10;99.90;;;;;;5074442;28;19920;-71
2022/04/27 01:49:26;;;;;;;;;;;9.10;99.90;;;;;;5072647;28;20298;-71
2022/04/27 01:54:36;;;;;;;;;;;9.10;99.90;;;;;;5071007;28;19925;-71
2022/04/27 01:57:01;;;;;;;;;;;9.10;99.90;;;;;;5072495;28;19927;-72
2022/04/27 01:59:27;;;;;;;;;;;9.10;99.90;;;;;;5076420;28;20390;-72
2022/04/27 02:01:53;;;;;;;;;;;9.60;99.90;;;;;;5092936;28;19999;-72
2022/04/27 02:04:19;;;;;;;;;;;9.10;99.90;;;;;;5092998;28;19955;-71
2022/04/27 02:06:44;;;;;;;;;;;9.10;99.90;;;;;;5091121;28;20387;-73
2022/04/27 02:09:10;;;;;;;;;;;9.10;99.90;;;;;;5106401;28;19923;-71
2022/04/27 02:11:35;;;;;;;;;;;9.10;99.90;;;;;;5091591;28;19920;-72
2022/04/27 02:14:01;;;;;;;;;;;9.10;99.90;;;;;;5091363;28;19961;-73
2022/04/27 02:16:27;;;;;;;;;;;9.10;99.90;;;;;;5109630;28;19931;-72
2022/04/27 02:18:53;;;;;;;;;;;10.10;99.90;;;;;;5108257;28;20394;-72
2022/04/27 02:21:20;;;;;;;;;;;9.10;99.90;;;;;;5090841;28;20014;-72
2022/04/27 02:23:45;;;;;;;;;;;9.10;99.90;;;;;;5091189;28;20011;-72
2022/04/27 02:26:11;;;;;;;;;;;9.10;99.90;;;;;;5090678;28;20007;-72
2022/04/27 02:28:37;;;;;;;;;;;9.10;99.90;;;;;;5091557;28;19920;-72
2022/04/27 02:31:02;;;;;;;;;;;9.10;99.90;;;;;;5091433;28;19920;-72
2022/04/27 02:33:31;;;;;;;;;;;9.10;99.90;;;;;;5091375;28;20283;-72
2022/04/27 02:35:57;;;;;;;;;;;9.10;99.90;;;;;;5092038;28;19977;-72
2022/04/27 02:38:23;;;;;;;;;;;9.10;99.90;;;;;;5091605;28;19923;-72
2022/04/27 02:40:50;;;;;;;;;;;9.10;99.90;;;;;;5074970;28;19917;-72
2022/04/27 02:43:16;;;;;;;;;;;9.10;99.90;;;;;;5071793;28;19928;-72
2022/04/27 02:45:42;;;;;;;;;;;9.00;99.90;;;;;;5071393;28;20311;-72
2022/04/27 02:48:08;;;;;;;;;;;9.00;99.90;;;;;;5070945;28;19924;-73
2022/04/27 02:53:18;;;;;;;;;;;9.00;99.90;;;;;;5092302;28;20014;-72
2022/04/27 02:55:44;;;;;;;;;;;9.00;99.90;;;;;;5107713;28;19927;-73
2022/04/27 02:58:09;;;;;;;;;;;9.00;99.90;;;;;;5108429;28;19920;-72
2022/04/27 03:00:34;;;;;;;;;;;8.90;99.90;;;;;;5093322;28;19973;-72
2022/04/27 03:03:00;;;;;;;;;;;8.90;99.90;;;;;;5095405;28;20367;-73
2022/04/27 03:05:26;;;;;;;;;;;8.90;99.90;;;;;;5094750;28;20018;-72
2022/04/27 03:07:51;;;;;;;;;;;8.90;99.90;;;;;;5111283;28;19942;-73
2022/04/27 03:10:16;;;;;;;;;;;8.90;99.90;;;;;;5090015;28;19920;-72
2022/04/27 03:12:42;;;;;;;;;;;9.00;99.90;;;;;;5075704;28;19927;-73
2022/04/27 03:15:08;;;;;;;;;;;8.90;99.90;;;;;;5073942;28;19959;-73
2022/04/27 03:17:33;;;;;;;;;;;8.90;99.90;;;;;;5082723;28;19943;-73
2022/04/27 03:19:59;;;;;;;;;;;8.90;99.90;;;;;;5094315;28;19927;-72
2022/04/27 03:22:24;;;;;;;;;;;8.90;99.90;;;;;;5094488;28;19935;-72
2022/04/27 03:24:49;;;;;;;;;;;8.90;99.90;;;;;;5094561;28;20364;-72
2022/04/27 03:27:15;;;;;;;;;;;8.90;99.90;;;;;;5092396;28;19927;-72
2022/04/27 03:29:40;;;;;;;;;;;8.90;99.90;;;;;;5092783;28;20329;-72
2022/04/27 03:32:06;;;;;;;;;;;8.90;99.90;;;;;;5093058;28;19931;-72
2022/04/27 03:34:32;;;;;;;;;;;8.90;99.90;;;;;;5110189;28;19920;-72
2022/04/27 03:36:57;;;;;;;;;;;8.90;99.90;;;;;;5096502;28;19928;-72
2022/04/27 03:39:23;;;;;;;;;;;8.90;99.90;;;;;;5073476;28;20010;-72
2022/04/27 03:41:48;;;;;;;;;;;8.90;99.90;;;;;;5073840;28;19935;-72
2022/04/27 03:44:13;;;;;;;;;;;8.90;99.90;;;;;;5074850;28;19943;-72
2022/04/27 03:46:42;;;;;;;;;;;8.90;99.90;;;;;;5074660;28;20007;-72
2022/04/27 03:49:07;;;;;;;;;;;8.90;99.90;;;;;;5073548;28;20382;-72
2022/04/27 03:51:33;;;;;;;;;;;8.90;99.90;;;;;;5074028;28;20003;-72
2022/04/27 03:53:59;;;;;;;;;;;8.90;99.90;;;;;;5073988;28;19924;-72
2022/04/27 03:56:24;;;;;;;;;;;8.90;99.90;;;;;;5074840;28;19916;-72
2022/04/27 03:58:49;;;;;;;;;;;8.90;99.90;;;;;;5073530;28;19977;-72
2022/04/27 04:01:15;;;;;;;;;;;8.90;99.90;;;;;;5073783;28;19928;-72
2022/04/27 04:03:41;;;;;;;;;;;8.90;99.90;;;;;;5074602;28;20348;-73
2022/04/27 04:06:06;;;;;;;;;;;8.90;99.90;;;;;;5079227;28;19931;-72
2022/04/27 04:08:32;;;;;;;;;;;8.90;99.90;;;;;;5092653;28;19920;-73
2022/04/27 04:10:57;;;;;;;;;;;8.90;99.90;;;;;;5092101;28;19975;-72
2022/04/27 04:13:23;;;;;;;;;;;8.90;99.90;;;;;;5092673;28;19916;-72
2022/04/27 04:15:49;;;;;;;;;;;8.90;99.90;;;;;;5094573;28;19920;-72
2022/04/27 04:18:15;;;;;;;;;;;8.90;99.90;;;;;;5093742;28;19973;-72
2022/04/27 04:20:41;;;;;;;;;;;8.90;99.90;;;;;;5109245;28;19924;-72
2022/04/27 04:23:09;;;;;;;;;;;8.90;99.90;;;;;;5083139;28;19925;-72
2022/04/27 04:28:31;;;;;;;;;;;8.90;99.90;;;;;;5071577;28;19978;-72
2022/04/27 04:30:57;;;;;;;;;;;8.90;99.90;;;;;;5072593;28;19924;-72
2022/04/27 04:33:23;;;;;;;;;;;8.90;99.90;;;;;;5075548;28;19921;-72
2022/04/27 04:35:49;;;;;;;;;;;8.80;99.90;;;;;;5072548;28;19928;-72
2022/04/27 04:38:14;;;;;;;;;;;8.80;99.90;;;;;;5072143;28;20403;-72
2022/04/27 04:40:40;;;;;;;;;;;8.80;99.90;;;;;;5072951;28;19928;-72
2022/04/27 04:43:05;;;;;;;;;;;8.90;99.90;;;;;;5073347;28;19923;-72
2022/04/27 04:45:30;;;;;;;;;;;8.90;99.90;;;;;;5072534;28;19967;-72
2022/04/27 04:47:59;;;;;;;;;;;8.90;99.90;;;;;;5075036;28;19928;-72
2022/04/27 04:50:24;;;;;;;;;;;8.90;99.90;;;;;;5073189;28;19921;-72
2022/04/27 04:52:50;;;;;;;;;;;8.90;99.90;;;;;;5072830;28;20341;-72
2022/04/27 04:55:15;;;;;;;;;;;8.80;99.90;;;;;;5071863;28;20363;-72
2022/04/27 04:57:41;;;;;;;;;;;8.80;99.90;;;;;;5072213;28;19928;-72
2022/04/27 05:00:09;;;;;;;;;;;8.80;99.90;;;;;;5073415;28;20011;-72
2022/04/27 05:02:34;;;;;;;;;;;8.80;99.90;;;;;;5071700;28;19920;-72
2022/04/27 05:05:02;;;;;;;;;;;8.80;99.90;;;;;;5074285;28;19927;-72
2022/04/27 05:07:29;;;;;;;;;;;8.80;99.90;;;;;;5071979;28;19927;-73
2022/04/27 05:09:55;;;;;;;;;;;8.80;99.90;;;;;;5071825;28;20364;-72
2022/04/27 05:12:20;;;;;;;;;;;8.80;99.90;;;;;;5072831;28;19921;-73
2022/04/27 05:14:46;;;;;;;;;;;8.80;99.90;;;;;;5073548;28;19978;-72
2022/04/27 05:17:11;;;;;;;;;;;8.80;99.90;;;;;;5071381;28;20104;-72
2022/04/27 05:19:37;;;;;;;;;;;8.80;99.90;;;;;;5084365;28;19920;-73
2022/04/27 05:22:03;;;;;;;;;;;8.80;99.90;;;;;;5093376;28;20322;-72
2022/04/27 05:24:29;;;;;;;;;;;8.70;99.90;;;;;;5091239;28;19919;-72
2022/04/27 05:26:55;;;;;;;;;;;8.70;99.90;;;;;;5092109;28;19920;-72
2022/04/27 05:32:06;;;;;;;;;;;8.80;99.90;;;;;;5092316;28;19920;-73
2022/04/27 05:34:33;;;;;;;;;;;8.80;99.90;;;;;;5092187;28;20294;-72
2022/04/27 05:36:59;;;;;;;;;;;8.80;99.90;;;;;;5092889;28;19923;-73
2022/04/27 05:39:25;;;;;;;;;;;8.80;99.90;;;;;;5092490;28;19966;-73
2022/04/27 05:41:51;;;;;;;;;;;8.80;99.90;;;;;;5091987;28;19971;-73
2022/04/27 05:44:21;;;;;;;;;;;8.90;99.90;;;;;;5092701;28;19977;-73
2022/04/27 05:46:48;;;;;;;;;;;8.90;99.90;;;;;;5091630;28;19942;-72
2022/04/27 05:49:13;;;;;;;;;;;8.80;99.90;;;;;;5092581;28;19920;-72
2022/04/27 05:51:39;;;;;;;;;;;8.90;99.90;;;;;;5091873;28;20320;-72
2022/04/27 05:54:04;;;;;;;;;;;8.90;99.90;;;;;;5091438;28;19927;-72
2022/04/27 05:56:30;;;;;;;;;;;8.90;99.90;;;;;;5091845;28;19919;-72
2022/04/27 05:58:55;;;;;;;;;;;8.80;99.90;;;;;;5091992;28;19920;-72
2022/04/27 06:01:21;;;;;;;;;;;8.80;99.90;;;;;;5109520;28;20382;-72
2022/04/27 06:03:46;;;;;;;;;;;8.90;99.90;;;;;;5082086;28;19935;-72
2022/04/27 06:06:12;;;;;;;;;;;8.90;99.90;;;;;;5081646;28;20014;-72
2022/04/27 06:08:37;;;;;;;;;;;8.80;99.90;;;;;;5081789;28;20082;-72
2022/04/27 06:11:03;;;;;;;;;;;8.90;99.90;;;;;;5082817;28;19920;-72
2022/04/27 06:13:30;;;;;;;;;;;8.90;99.90;;;;;;5072551;28;20307;-73
2022/04/27 06:15:56;;;;;;;;;;;8.90;99.90;;;;;;5075156;28;19930;-72
2022/04/27 06:18:22;;;;;;;;;;;8.90;99.90;;;;;;5098543;28;19927;-73
2022/04/27 06:20:47;;;;;;;;;;;9.00;99.90;;;;;;5091462;28;19916;-73
2022/04/27 06:23:16;;;;;;;;;;;9.00;99.90;;;;;;5090414;28;19920;-73
2022/04/27 06:25:43;;;;;;;;;;;9.00;99.90;;;;;;5091939;28;19919;-73
2022/04/27 06:28:09;;;;;;;;;;;9.00;99.90;;;;;;5089668;28;19928;-73
2022/04/27 06:30:37;;;;;;;;;;;9.00;99.90;;;;;;5091168;28;19921;-73
2022/04/27 06:33:03;;;;;;;;;;;9.10;99.90;;;;;;5092273;28;20010;-73
2022/04/27 06:35:28;;;;;;;;;;;9.10;99.90;;;;;;5094360;28;19986;-73
2022/04/27 06:37:54;;;;;;;;;;;9.20;99.90;;;;;;5091103;28;19954;-73
2022/04/27 06:40:19;;;;;;;;;;;9.20;99.90;;;;;;5078552;28;19920;-73
2022/04/27 06:42:45;;;;;;;;;;;9.20;99.90;;;;;;5075973;28;19931;-74
2022/04/27 06:45:11;;;;;;;;;;;9.20;99.90;;;;;;5075004;28;19920;-73
2022/04/27 06:47:36;;;;;;;;;;;9.20;99.90;;;;;;5075540;28;19971;-73
2022/04/27 06:50:02;;;;;;;;;;;9.20;99.90;;;;;;5073894;28;19925;-73
2022/04/27 06:52:27;;;;;;;;;;;9.20;99.90;;;;;;5074413;28;19916;-74
2022/04/27 06:54:53;;;;;;;;;;;9.20;99.90;;;;;;5075720;28;19926;-73
2022/04/27 06:57:18;;;;;;;;;;;9.30;99.90;;;;;;5075073;28;19920;-73
2022/04/27 06:59:44;;;;;;;;;;;9.30;99.90;;;;;;5094922;28;19946;-74
2022/04/27 07:02:10;;;;;;;;;;;9.40;99.90;;;;;;5091492;28;19920;-73
2022/04/27 07:04:36;;;;;;;;;;;9.40;99.90;;;;;;5093760;28;19924;-74
2022/04/27 07:07:02;;;;;;;;;;;9.50;99.90;;;;;;5090522;28;19965;-74
2022/04/27 07:09:29;;;;;;;;;;;9.50;99.90;;;;;;5090250;28;19920;-77
2022/04/27 07:11:55;;;;;;;;;;;9.50;99.90;;;;;;5079195;28;20371;-80
2022/04/27 07:14:21;;;;;;;;;;;9.60;99.90;;;;;;5078473;28;20298;-78
2022/04/27 07:16:46;;;;;;;;;;;9.70;99.90;;;;;;5094042;28;19924;-74
2022/04/27 07:19:12;;;;;;;;;;;9.80;99.90;;;;;;5094988;28;19923;-76
2022/04/27 07:21:38;;;;;;;;;;;10.80;99.90;;;;;;5094721;28;19920;-79
2022/04/27 07:24:04;;;;;;;;;;;10.00;99.90;;;;;;5104520;28;19928;-75
2022/04/27 07:26:38;;;;;;;;;;;10.10;99.90;;;;;;5094158;28;20398;-81
2022/04/27 07:29:05;;;;;;;;;;;10.20;99.90;;;;;;5090551;28;19928;-80
2022/04/27 07:31:32;;;;;;;;;;;10.20;99.90;;;;;;5087942;28;19920;-82
2022/04/27 07:33:57;;;;;;;;;;;10.30;99.90;;;;;;5093725;28;19920;-80
2022/04/27 07:36:23;;;;;;;;;;;10.30;99.90;;;;;;5095967;28;20027;-80
2022/04/27 07:38:48;;;;;;;;;;;10.40;99.90;;;;;;5109983;28;19920;-81
2022/04/27 07:41:14;;;;;;;;;;;10.50;99.90;;;;;;5091449;28;19927;-76
2022/04/27 07:43:40;;;;;;;;;;;10.50;99.90;;;;;;5089614;28;19920;-76
2022/04/27 07:46:08;;;;;;;;;;;10.50;99.90;;;;;;5107275;28;19920;-81
2022/04/27 07:48:34;;;;;;;;;;;10.50;99.90;;;;;;5092663;28;19920;-74
2022/04/27 07:50:59;;;;;;;;;;;10.60;99.90;;;;;;5089871;28;19923;-76
2022/04/27 07:53:28;;;;;;;;;;;10.70;99.90;;;;;;5092157;28;20000;-77
2022/04/27 07:55:54;;;;;;;;;;;10.70;99.90;;;;;;5088775;28;19982;-73
2022/04/27 07:58:20;;;;;;;;;;;10.80;99.90;;;;;;5083310;28;20710;-74
2022/04/27 08:00:46;;;;;;;;;;;10.90;99.90;;;;;;5074486;28;19928;-76
2022/04/27 08:03:14;;;;;;;;;;;11.00;99.90;;;;;;5091538;28;20297;-77
2022/04/27 08:05:39;;;;;;;;;;;11.10;99.90;;;;;;5091954;28;19924;-78
2022/04/27 08:08:06;;;;;;;;;;;11.30;99.90;;;;;;5091810;28;19984;-77
2022/04/27 08:10:32;;;;;;;;;;;11.30;99.90;;;;;;5093179;28;19927;-79
2022/04/27 08:13:00;;;;;;;;;;;11.20;99.90;;;;;;5088479;28;20364;-70
2022/04/27 08:15:25;;;;;;;;;;;11.40;99.90;;;;;;5089514;28;19927;-69
2022/04/27 08:17:51;;;;;;;;;;;11.50;99.90;;;;;;5090491;28;19966;-69
2022/04/27 08:23:08;;;;;;;;;;;11.60;99.90;;;;;;5091136;28;19920;-72
2022/04/27 08:25:35;;;;;;;;;;;11.80;99.90;;;;;;5089590;28;19920;-72
2022/04/27 08:28:03;;;;;;;;;;;11.90;99.90;;;;;;5092119;28;20271;-72
2022/04/27 08:30:29;;;;;;;;;;;12.00;99.90;;;;;;5091797;28;19928;-67
2022/04/27 08:32:55;;;;;;;;;;;12.20;99.90;;;;;;5091564;28;19920;-68
2022/04/27 08:35:21;;;;;;;;;;;12.30;99.90;;;;;;5090690;28;20291;-70
2022/04/27 08:37:46;;;;;;;;;;;12.50;99.90;;;;;;5091469;28;19924;-71
2022/04/27 08:40:12;;;;;;;;;;;12.60;99.40;;;;;;5091218;28;19920;-71
2022/04/27 08:42:37;;;;;;;;;;;12.80;99.90;;;;;;5089386;28;19920;-72
2022/04/27 08:45:03;;;;;;;;;;;13.10;99.90;;;;;;5078521;28;20389;-71
2022/04/27 08:47:29;;;;;;;;;;;13.10;98.60;;;;;;5091463;28;19927;-71
2022/04/27 08:49:55;;;;;;;;;;;13.40;99.40;;;;;;5091822;28;19973;-71
2022/04/27 08:52:21;;;;;;;;;;;13.50;98.10;;;;;;5091266;28;19919;-71
2022/04/27 08:54:47;;;;;;;;;;;13.60;97.50;;;;;;5089112;28;20042;-71
2022/04/27 08:57:13;;;;;;;;;;;13.60;97.50;;;;;;5091233;28;19999;-71
2022/04/27 08:59:38;;;;;;;;;;;13.60;98.70;;;;;;5085359;28;19992;-72
2022/04/27 09:02:24;;;;;;;;;;;13.60;97.60;;;;;;5086322;28;19920;-72
2022/04/27 09:05:08;;;;;;;;;;;13.60;97.30;;;;;;5091909;28;19924;-73
2022/04/27 09:07:38;;;;;;;;;;;13.60;97.50;;;;;;5092009;28;19920;-73
2022/04/27 09:10:05;;;;;;;;;;;13.60;97.60;;;;;;5106355;28;19924;-72
2022/04/27 09:12:31;;;;;;;;;;;13.60;98.10;;;;;;5086136;28;20345;-69
2022/04/27 09:15:04;;;;;;;;;;;13.60;98.60;;;;;;5092725;28;19927;-73
2022/04/27 09:23:03;;;;;;;;;;;13.40;98.00;;;;;;5100978;28;20323;-71
2022/04/27 09:25:29;;;;;;;;;;;13.60;97.30;;;;;;5088405;28;19919;-82
2022/04/27 09:27:55;;;;;;;;;;;13.80;96.80;;;;;;5086421;28;20015;-82
2022/04/27 09:30:25;;;;;;;;;;;13.60;97.20;;;;;;5090836;28;20353;-83
2022/04/27 09:32:51;;;;;;;;;;;13.70;96.70;;;;;;5088901;28;20446;-83
2022/04/27 09:35:28;;;;;;;;;;;13.80;97.20;;;;;;5086767;28;20023;-83
2022/04/27 09:37:53;;;;;;;;;;;13.90;96.30;;;;;;5108320;28;20291;-82
2022/04/27 09:40:19;;;;;;;;;;;14.00;95.80;;;;;;5089071;28;20362;-83
2022/04/27 09:42:46;;;;;;;;;;;13.90;95.20;;;;;;5090797;28;19920;-83
2022/04/27 09:45:23;;;;;;;;;;;13.90;95.50;;;;;;5090793;28;20012;-83
2022/04/27 09:47:48;;;;;;;;;;;13.80;96.70;;;;;;5072165;28;19971;-83
2022/04/27 09:50:15;;;;;;;;;;;13.70;96.80;;;;;;5072280;28;19966;-83
2022/04/27 09:52:40;;;;;;;;;;;13.70;96.10;;;;;;5071885;28;19928;-83
2022/04/27 09:55:07;;;;;;;;;;;13.70;95.90;;;;;;5073507;28;20292;-84
2022/04/27 09:57:35;;;;;;;;;;;13.90;96.40;;;;;;5096547;28;19970;-83
2022/04/27 10:00:01;;;;;;;;;;;13.90;95.50;;;;;;5092291;28;19920;-83
2022/04/27 10:02:30;;;;;;;;;;;14.00;96.30;;;;;;5093029;28;19927;-83
2022/04/27 10:04:56;;;;;;;;;;;14.10;96.10;;;;;;5092269;28;19982;-83
2022/04/27 10:07:23;;;;;;;;;;;14.20;95.70;;;;;;5092936;28;19931;-84
2022/04/27 10:09:51;;;;;;;;;;;14.30;95.80;;;;;;5101993;28;20446;-83
2022/04/27 10:12:17;;;;;;;;;;;14.60;95.40;;;;;;5095288;28;20409;-83
2022/04/27 10:14:45;;;;;;;;;;;15.00;94.30;;;;;;5095638;28;19931;-83
2022/04/27 10:17:12;;;;;;;;;;;16.00;94.50;;;;;;5095534;28;20425;-80
2022/04/27 10:19:43;;;;;;;;;;;15.10;93.60;;;;;;5095164;28;19924;-80
2022/04/27 10:22:24;;;;;;;;;;;15.30;94.40;;;;;;5096714;28;19955;-80
2022/04/27 10:24:49;;;;;;;;;;;15.30;93.10;;;;;;5078519;28;20406;-80
2022/04/27 10:27:15;;;;;;;;;;;15.40;93.70;;;;;;5075748;28;19920;-80
2022/04/27 10:29:40;;;;;;;;;;;15.40;92.90;;;;;;5075139;28;19924;-81
2022/04/27 10:32:06;;;;;;;;;;;15.60;93.60;;;;;;5092903;28;19921;-81
2022/04/27 10:34:33;;;;;;;;;;;15.80;93.30;;;;;;5077408;28;19919;-80
2022/04/27 10:36:59;;;;;;;;;;;15.90;92.60;;;;;;5094676;28;19924;-81
2022/04/27 10:39:25;;;;;;;;;;;16.00;91.90;;;;;;5110623;28;19965;-80
2022/04/27 10:41:55;;;;;;;;;;;16.20;92.50;;;;;;5095114;28;19923;-82
2022/04/27 10:44:21;;;;;;;;;;;16.50;92.10;;;;;;5094942;28;19924;-82
2022/04/27 10:46:47;;;;;;;;;;;16.50;90.30;;;;;;5094603;28;19928;-83
2022/04/27 10:49:22;;;;;;;;;;;16.40;90.90;;;;;;5094295;28;19927;-83
2022/04/27 10:52:03;;;;;;;;;;;16.10;90.30;;;;;;5091562;28;20299;-82
2022/04/27 10:54:38;;;;;;;;;;;16.00;90.70;;;;;;5095737;28;19920;-80
2022/04/27 10:57:16;;;;;;;;;;;15.90;90.80;;;;;;5095805;28;19924;-81
2022/04/27 10:59:42;;;;;;;;;;;15.80;90.70;;;;;;5095367;28;20291;-80
2022/04/27 11:02:28;;;;;;;;;;;15.80;92.20;;;;;;5095649;28;19927;-80
2022/04/27 11:04:54;;;;;;;;;;;15.80;91.20;;;;;;5081469;28;20387;-80
2022/04/27 11:07:23;;;;;;;;;;;15.70;91.40;;;;;;5092887;28;19920;-80
2022/04/27 11:09:58;;;;;;;;;;;15.80;90.80;;;;;;5093836;28;19950;-80
2022/04/27 11:12:24;;;;;;;;;;;15.90;91.40;;;;;;5074475;28;19928;-80
2022/04/27 11:14:57;;;;;;;;;;;15.70;90.70;;;;;;5083706;28;19920;-80
2022/04/27 11:17:28;;;;;;;;;;;15.50;90.70;;;;;;5095807;28;19924;-80
2022/04/27 11:19:54;;;;;;;;;;;15.60;91.40;;;;;;5111085;28;20006;-80
2022/04/27 11:22:20;;;;;;;;;;;15.80;90.60;;;;;;5094661;28;20024;-80
2022/04/27 11:24:47;;;;;;;;;;;15.80;90.90;;;;;;5095434;28;19927;-81
2022/04/27 11:27:12;;;;;;;;;;;15.90;89.60;;;;;;5093714;28;19920;-81
2022/04/27 11:29:38;;;;;;;;;;;15.90;90.40;;;;;;5093649;28;19920;-81
2022/04/27 11:32:06;;;;;;;;;;;16.30;90.50;;;;;;5094189;28;19927;-81
2022/04/27 11:34:33;;;;;;;;;;;16.10;90.80;;;;;;5093661;28;19924;-81
2022/04/27 11:37:11;;;;;;;;;;;16.00;90.90;;;;;;5094981;28;19920;-81
2022/04/27 11:39:37;;;;;;;;;;;15.90;90.80;;;;;;5094407;28;19931;-80
2022/04/27 11:42:02;;;;;;;;;;;15.80;91.20;;;;;;5093817;28;19920;-81
2022/04/27 11:44:34;;;;;;;;;;;15.70;91.20;;;;;;5094678;28;19973;-80
2022/04/27 11:47:00;;;;;;;;;;;15.70;90.40;;;;;;5093697;28;19965;-81
2022/04/27 11:49:25;;;;;;;;;;;15.60;90.60;;;;;;5095133;28;20295;-80
2022/04/27 11:51:51;;;;;;;;;;;15.80;90.20;;;;;;5094564;28;19924;-81
2022/04/27 11:54:23;;;;;;;;;;;15.90;90.80;;;;;;5093266;28;19931;-81
2022/04/27 11:56:53;;;;;;;;;;;15.90;90.80;;;;;;5073976;28;19963;-81
2022/04/27 11:59:22;;;;;;;;;;;16.00;90.40;;;;;;5074678;28;19924;-81
2022/04/27 12:01:52;;;;;;;;;;;16.00;90.20;;;;;;5093244;28;19964;-80
2022/04/27 12:04:19;;;;;;;;;;;16.00;90.30;;;;;;5093116;28;20015;-80
2022/04/27 12:06:46;;;;;;;;;;;15.90;90.40;;;;;;5094935;28;19923;-80
2022/04/27 12:09:15;;;;;;;;;;;16.10;90.20;;;;;;5093452;28;19920;-80
2022/04/27 12:11:41;;;;;;;;;;;16.30;89.30;;;;;;5092892;28;19920;-80
2022/04/27 12:14:07;;;;;;;;;;;16.40;90.30;;;;;;5093041;28;20270;-80
2022/04/27 12:16:32;;;;;;;;;;;16.30;87.30;;;;;;5092937;28;19920;-80
2022/04/27 12:18:59;;;;;;;;;;;16.60;89.60;;;;;;5109311;28;19920;-81
2022/04/27 12:21:24;;;;;;;;;;;16.70;88.90;;;;;;5093195;28;19920;-81
2022/04/27 12:23:50;;;;;;;;;;;16.70;87.40;;;;;;5094410;28;19927;-81
2022/04/27 12:26:16;;;;;;;;;;;16.50;84.70;;;;;;5091318;28;19977;-80
2022/04/27 12:28:46;;;;;;;;;;;16.50;87.90;;;;;;5072681;28;20019;-80
2022/04/27 12:31:14;;;;;;;;;;;16.80;90.00;;;;;;5081808;28;19977;-81
2022/04/27 12:33:44;;;;;;;;;;;16.70;87.70;;;;;;5073272;28;19924;-80
2022/04/27 12:38:56;;;;;;;;;;;16.70;84.10;;;;;;5073724;28;20272;-81
2022/04/27 12:41:37;;;;;;;;;;;16.70;86.80;;;;;;5090505;28;19920;-81
2022/04/27 12:44:07;;;;;;;;;;;16.70;85.40;;;;;;5072436;28;19920;-81
2022/04/27 12:46:32;;;;;;;;;;;16.70;87.80;;;;;;5072278;28;20287;-80
2022/04/27 12:49:02;;;;;;;;;;;16.80;85.60;;;;;;5071860;28;19927;-81
2022/04/27 12:51:29;;;;;;;;;;;16.60;86.50;;;;;;5073895;28;19967;-81
2022/04/27 12:53:54;;;;;;;;;;;16.30;86.30;;;;;;5072249;28;19970;-81
2022/04/27 12:56:22;;;;;;;;;;;16.00;87.50;;;;;;5075023;28;19963;-81
2022/04/27 12:59:03;;;;;;;;;;;15.80;87.40;;;;;;5073679;28;19924;-81
2022/04/27 13:01:29;;;;;;;;;;;16.00;89.30;;;;;;5086160;28;19920;-83
2022/04/27 13:03:55;;;;;;;;;;;16.00;89.50;;;;;;5109641;28;19920;-83
2022/04/27 13:06:22;;;;;;;;;;;16.10;89.20;;;;;;5109338;28;19920;-82
2022/04/27 13:08:48;;;;;;;;;;;16.00;87.00;;;;;;5091792;28;19928;-81
2022/04/27 13:13:58;;;;;;;;;;;16.10;88.90;;;;;;5093614;28;19932;-81
2022/04/27 13:16:25;;;;;;;;;;;16.10;87.20;;;;;;5092882;28;20021;-81
2022/04/27 13:18:50;;;;;;;;;;;16.00;86.80;;;;;;5092903;28;20295;-81
2022/04/27 13:21:16;;;;;;;;;;;16.00;89.10;;;;;;5092014;28;20218;-81
2022/04/27 13:23:42;;;;;;;;;;;16.10;88.30;;;;;;5091161;28;19916;-81
2022/04/27 13:26:08;;;;;;;;;;;16.10;88.10;;;;;;5091867;28;19927;-81
2022/04/27 13:28:35;;;;;;;;;;;16.00;89.00;;;;;;5091433;28;19920;-81
2022/04/27 13:31:02;;;;;;;;;;;16.20;88.80;;;;;;5092966;28;19920;-80
2022/04/27 13:33:28;;;;;;;;;;;16.20;87.70;;;;;;5092069;28;20375;-81
2022/04/27 13:35:54;;;;;;;;;;;16.30;87.80;;;;;;5091309;28;20349;-80
2022/04/27 13:38:19;;;;;;;;;;;16.30;87.80;;;;;;5091673;28;19946;-81
2022/04/27 13:40:46;;;;;;;;;;;16.20;87.40;;;;;;5093082;28;20355;-81
2022/04/27 13:43:12;;;;;;;;;;;16.00;87.40;;;;;;5091658;28;20375;-81
2022/04/27 13:45:38;;;;;;;;;;;16.20;88.10;;;;;;5091908;28;19977;-81
2022/04/27 13:48:04;;;;;;;;;;;16.20;88.20;;;;;;5108415;28;20367;-81
2022/04/27 13:50:29;;;;;;;;;;;16.20;88.50;;;;;;5072994;28;19946;-81
2022/04/27 13:52:56;;;;;;;;;;;16.80;89.70;;;;;;5071609;28;20002;-80
2022/04/27 13:55:22;;;;;;;;;;;16.20;87.90;;;;;;5074038;28;19943;-81
2022/04/27 13:57:47;;;;;;;;;;;16.00;89.90;;;;;;5071019;28;20359;-80
2022/04/27 14:00:13;;;;;;;;;;;16.10;88.90;;;;;;5071368;28;19920;-84
2022/04/27 14:02:39;;;;;;;;;;;15.70;90.10;;;;;;5085767;28;20331;-80
2022/04/27 14:05:07;;;;;;;;;;;15.50;90.00;;;;;;5092622;28;20064;-87
2022/04/27 14:07:35;;;;;;;;;;;15.40;91.20;;;;;;5091045;28;20057;-82
2022/04/27 14:10:01;;;;;;;;;;;15.30;90.20;;;;;;5089371;28;19920;-89
2022/04/27 14:15:11;;;;;;;;;;;14.90;91.30;;;;;;5080293;28;19920;-83
2022/04/27 14:20:22;;;;;;;;;;;14.90;90.90;;;;;;5108042;28;20372;-81
2022/04/27 14:22:47;;;;;;;;;;;14.90;90.90;;;;;;5093015;28;19925;-82
2022/04/27 14:25:13;;;;;;;;;;;14.90;91.70;;;;;;5090123;28;19927;-83
2022/04/27 14:27:38;;;;;;;;;;;15.00;91.90;;;;;;5107776;28;20004;-84
2022/04/27 14:30:04;;;;;;;;;;;15.20;91.30;;;;;;5079562;28;19978;-81
2022/04/27 14:32:32;;;;;;;;;;;15.00;91.80;;;;;;5071855;28;19971;-82
2022/04/27 14:34:58;;;;;;;;;;;15.10;91.30;;;;;;5072053;28;19925;-83
2022/04/27 14:37:24;;;;;;;;;;;15.10;91.70;;;;;;5077489;28;19920;-81
2022/04/27 14:39:49;;;;;;;;;;;15.10;91.20;;;;;;5070714;28;19920;-80
2022/04/27 14:42:15;;;;;;;;;;;15.00;91.40;;;;;;5087797;28;19920;-82
2022/04/27 14:44:40;;;;;;;;;;;15.00;91.90;;;;;;5091986;28;19920;-82
2022/04/27 14:47:06;;;;;;;;;;;15.00;92.20;;;;;;5089838;28;19943;-84
2022/04/27 14:49:31;;;;;;;;;;;15.00;91.90;;;;;;5091897;28;19927;-84
2022/04/27 14:51:57;;;;;;;;;;;15.00;92.20;;;;;;5090131;28;19963;-84